WetterOnline ( https://www.wetteronline.de )

Wetter aktuell Büsum

Aktuelles Wetter: Heide/Elpersbüttel (5m)

6-stündlich | Neueste Meldungen
Ortszeit Temperatur Wetter
Fr, 27.05. 2:00 13.1° C bewölkt
Do, 26.05. 20:00 12.9° C Sprühregen
Do, 26.05. 14:00 15.2° C wolkig
Do, 26.05. 8:00 13.3° C bedeckt
Do, 26.05. 2:00 13.7° C Regen
Mi, 25.05. 20:00 14.4° C bedeckt
Mi, 25.05. 14:00 17.0° C wolkig
Mi, 25.05. 8:00 12.7° C wolkenlos
Ortszeit Temperatur Wetter
Fr, 27.05. 7:00 11.9° C leicht bewölkt
Fr, 27.05. 6:50 11.9° C leicht bewölkt
Fr, 27.05. 6:40 11.7° C fast wolkenlos
Fr, 27.05. 6:30 11.3° C leicht bewölkt
Fr, 27.05. 6:20 11.3° C leicht bewölkt
Fr, 27.05. 6:10 11.3° C fast wolkenlos
Fr, 27.05. 6:00 11.1° C wolkenlos
Fr, 27.05. 5:30 11.2° C wolkenlos
Fr, 27.05. 5:00 11.5° C leicht bewölkt
Fr, 27.05. 4:30 12.1° C wolkig
Fr, 27.05. 4:00 12.4° C bewölkt
Ortszeit Relative Feuchte Sichtweite
Fr, 27.05. 2:00 89% 22 km
Do, 26.05. 20:00 81% 30 km
Do, 26.05. 14:00 68% 45 km
Do, 26.05. 8:00 79% 29 km
Do, 26.05. 2:00 93% 19 km
Mi, 25.05. 20:00 74% 45 km
Mi, 25.05. 14:00 58% 50 km
Mi, 25.05. 8:00 86% 35 km
Ortszeit Relative Feuchte Sichtweite
Fr, 27.05. 7:00 76% 29 km
Fr, 27.05. 6:50 76% -
Fr, 27.05. 6:40 74% -
Fr, 27.05. 6:30 78% 27 km
Fr, 27.05. 6:20 78% -
Fr, 27.05. 6:10 77% -
Fr, 27.05. 6:00 77% 30 km
Fr, 27.05. 5:30 74% 30 km
Fr, 27.05. 5:00 74% 30 km
Fr, 27.05. 4:30 70% 35 km
Fr, 27.05. 4:00 77% 29 km
Ortszeit Niederschlagsmenge Niederschlagsart
Fr, 27.05. 2:00 4 l/m2 in 6 Std. Regen
Do, 26.05. 20:00 0.1 l/m2 in 12 Std. Regen
Do, 26.05. 14:00 0.0 l/m2 in 6 Std. -
Do, 26.05. 8:00 4 l/m2 in 12 Std. -
Do, 26.05. 2:00 4 l/m2 in 6 Std. Regen
Mi, 25.05. 20:00 2 l/m2 in 12 Std. Regen
Mi, 25.05. 14:00 0.0 l/m2 in 6 Std. -
Mi, 25.05. 8:00 0.1 l/m2 in 12 Std. -
Ortszeit Niederschlagsmenge Niederschlagsart
Fr, 27.05. 7:00 0.0 l/m2 in 1 Std. -
Fr, 27.05. 6:50 keine Meldung -
Fr, 27.05. 6:40 keine Meldung -
Fr, 27.05. 6:30 0.0 l/m2 in 1 Std. -
Fr, 27.05. 6:20 keine Meldung -
Fr, 27.05. 6:10 keine Meldung -
Fr, 27.05. 6:00 0.0 l/m2 in 1 Std. -
Fr, 27.05. 5:30 0.0 l/m2 in 1 Std. -
Fr, 27.05. 5:00 0.0 l/m2 in 1 Std. -
Fr, 27.05. 4:30 0.0 l/m2 in 1 Std. -
Fr, 27.05. 4:00 0.0 l/m2 in 1 Std. -
Ortszeit Stärke Spitze Richtung
km/h Bft. km/h Grad Sektor
Fr, 27.05. 2:00 37 5 70 280° W
Do, 26.05. 20:00 29 5 54 270° W
Do, 26.05. 14:00 43 6 56 260° W
Do, 26.05. 8:00 39 6 56 270° W
Do, 26.05. 2:00 43 6 65 240° SW
Mi, 25.05. 20:00 20 4 57 260° W
Mi, 25.05. 14:00 29 5 40 230° SW
Mi, 25.05. 8:00 20 4 26 210° SW
Ortszeit Stärke Spitze Richtung
km/h Bft. km/h Grad Sektor
Fr, 27.05. 7:00 29 5 43 270° W
Fr, 27.05. 6:50 29 5 - 270° W
Fr, 27.05. 6:40 29 5 - 270° W
Fr, 27.05. 6:30 31 5 43 280° W
Fr, 27.05. 6:20 31 5 - 280° W
Fr, 27.05. 6:10 29 5 - 280° W
Fr, 27.05. 6:00 30 5 44 280° W
Fr, 27.05. 5:30 31 5 44 280° W
Fr, 27.05. 5:00 35 5 46 280° W
Fr, 27.05. 4:30 33 5 46 280° W
Fr, 27.05. 4:00 36 5 54 280° W
Ortszeit Untergrenze Bedeckung Gattung
total tief tief mittel hoch
Fr, 27.05. 2:00 450 m 7/8 7/8 - - -
Do, 26.05. 20:00 600 m 8/8 8/8 - - -
Do, 26.05. 14:00 1800 m 7/8 7/8 - - -
Do, 26.05. 8:00 2100 m 8/8 8/8 - - -
Do, 26.05. 2:00 300 m 8/8 8/8 - - -
Mi, 25.05. 20:00 3000 m 8/8 8/8 - - -
Mi, 25.05. 14:00 1170 m 8/8 2/8 - - -
Mi, 25.05. 8:00 - 0/8 0/8 - - -
Ortszeit Bedeckungsgrad in Achtel und Wolkenuntergrenze
Fr, 27.05. 7:00 1(840m) 3(1080m)
Fr, 27.05. 6:50 1(840m) 3(1080m) 4(1500m)
Fr, 27.05. 6:40 1
Fr, 27.05. 6:30 1(870m)
Fr, 27.05. 6:20 1(870m) 2(1140m) 2(1380m)
Fr, 27.05. 6:10 1
Fr, 27.05. 6:00 keine Wolken
Fr, 27.05. 5:30 keine Wolken
Fr, 27.05. 5:00 1(810m) 3(990m)
Fr, 27.05. 4:30 1(720m) 5(2100m)
Fr, 27.05. 4:00 7(2100m)
Ortszeit Luftdruck NN (hPa) Tendenz (hPa in 3 Std.)
Fr, 27.05. 2:00 1014 0,0
Do, 26.05. 20:00 1016 - 0,8
Do, 26.05. 14:00 1017 + 1,1
Do, 26.05. 8:00 1014 + 1,8
Do, 26.05. 2:00 1012 - 0,6
Mi, 25.05. 20:00 1012 0,0
Mi, 25.05. 14:00 1012 - 0,1
Mi, 25.05. 8:00 1012 + 0,7
Ortszeit Luftdruck NN (hPa) Tendenz (hPa in 3 Std.)
Fr, 27.05. 7:00 1014 + 0,4
Fr, 27.05. 6:50 1014 keine Meldung
Fr, 27.05. 6:40 1014 keine Meldung
Fr, 27.05. 6:30 1014 + 0,5
Fr, 27.05. 6:20 1014 keine Meldung
Fr, 27.05. 6:10 1014 keine Meldung
Fr, 27.05. 6:00 1014 + 0,5
Fr, 27.05. 5:30 1014 + 0,5
Fr, 27.05. 5:00 1014 + 0,3
Fr, 27.05. 4:30 1014 + 0,3
Fr, 27.05. 4:00 1014 + 0,1
Ortszeit Schneehöhe (cm)
Fr, 27.05. 2:00 0
Do, 26.05. 20:00 0
Do, 26.05. 14:00 0
Do, 26.05. 8:00 0
Do, 26.05. 2:00 0
Mi, 25.05. 20:00 0
Mi, 25.05. 14:00 0
Mi, 25.05. 8:00 0
Ortszeit Schneehöhe (cm)
Fr, 27.05. 7:00 0
Fr, 27.05. 6:50 0
Fr, 27.05. 6:40 0
Fr, 27.05. 6:30 0
Fr, 27.05. 6:20 0
Fr, 27.05. 6:10 0
Fr, 27.05. 6:00 0
Fr, 27.05. 5:30 0
Fr, 27.05. 5:00 0
Fr, 27.05. 4:30 0
Fr, 27.05. 4:00 0
Link zu dieser Seite / Seite empfehlen

Das Wetter in ...